sensor_id;sensor_type;location;lat;lon;timestamp;pressure;altitude;pressure_sealevel;temperature;humidity
30598;BME280;17365;48.878;8.334;2023-04-10T00:00:39;100650.50;;;6.30;72.45
30598;BME280;17365;48.878;8.334;2023-04-10T00:03:05;100655.19;;;5.85;74.64
30598;BME280;17365;48.878;8.334;2023-04-10T00:05:31;100650.34;;;6.24;72.48
30598;BME280;17365;48.878;8.334;2023-04-10T00:07:56;100649.06;;;6.40;71.40
30598;BME280;17365;48.878;8.334;2023-04-10T00:10:21;100654.78;;;6.30;71.80
30598;BME280;17365;48.878;8.334;2023-04-10T00:12:47;100656.06;;;6.14;72.57
30598;BME280;17365;48.878;8.334;2023-04-10T00:15:12;100654.09;;;6.35;71.48
30598;BME280;17365;48.878;8.334;2023-04-10T00:17:37;100651.75;;;6.45;70.70
30598;BME280;17365;48.878;8.334;2023-04-10T00:20:02;100651.84;;;6.48;70.58
30598;BME280;17365;48.878;8.334;2023-04-10T00:22:29;100657.38;;;6.31;70.78
30598;BME280;17365;48.878;8.334;2023-04-10T00:24:54;100654.41;;;6.48;69.87
30598;BME280;17365;48.878;8.334;2023-04-10T00:27:19;100656.78;;;6.40;70.20
30598;BME280;17365;48.878;8.334;2023-04-10T00:29:44;100660.94;;;6.05;72.45
30598;BME280;17365;48.878;8.334;2023-04-10T00:32:10;100652.84;;;6.23;71.43
30598;BME280;17365;48.878;8.334;2023-04-10T00:34:35;100654.78;;;6.00;72.83
30598;BME280;17365;48.878;8.334;2023-04-10T00:37:00;100654.31;;;6.13;71.51
30598;BME280;17365;48.878;8.334;2023-04-10T00:39:25;100659.13;;;6.01;72.09
30598;BME280;17365;48.878;8.334;2023-04-10T00:41:50;100662.25;;;5.35;75.98
30598;BME280;17365;48.878;8.334;2023-04-10T00:44:16;100658.94;;;5.39;75.96
30598;BME280;17365;48.878;8.334;2023-04-10T00:46:41;100644.19;;;5.34;76.83
30598;BME280;17365;48.878;8.334;2023-04-10T00:49:06;100653.38;;;5.54;75.02
30598;BME280;17365;48.878;8.334;2023-04-10T00:51:33;100657.75;;;5.30;76.95
30598;BME280;17365;48.878;8.334;2023-04-10T00:53:58;100655.59;;;5.70;74.67
30598;BME280;17365;48.878;8.334;2023-04-10T00:56:24;100655.28;;;5.60;74.33
30598;BME280;17365;48.878;8.334;2023-04-10T00:58:49;100656.06;;;5.57;74.80
30598;BME280;17365;48.878;8.334;2023-04-10T01:01:14;100652.66;;;5.31;76.70
30598;BME280;17365;48.878;8.334;2023-04-10T01:03:39;100650.38;;;5.40;76.21
30598;BME280;17365;48.878;8.334;2023-04-10T01:09:00;100660.03;;;5.76;73.95
30598;BME280;17365;48.878;8.334;2023-04-10T01:13:57;100648.88;;;5.20;76.91
30598;BME280;17365;48.878;8.334;2023-04-10T01:16:27;100651.31;;;5.15;77.42
30598;BME280;17365;48.878;8.334;2023-04-10T01:21:53;100659.19;;;4.94;78.60
30598;BME280;17365;48.878;8.334;2023-04-10T01:29:31;100653.91;;;4.64;79.72
30598;BME280;17365;48.878;8.334;2023-04-10T01:34:24;100657.19;;;4.60;81.03
30598;BME280;17365;48.878;8.334;2023-04-10T01:36:55;100659.06;;;4.64;80.05
30598;BME280;17365;48.878;8.334;2023-04-10T01:39:21;100660.47;;;4.56;80.17
30598;BME280;17365;48.878;8.334;2023-04-10T01:41:49;100671.19;;;4.68;79.97
30598;BME280;17365;48.878;8.334;2023-04-10T01:44:16;100667.00;;;4.72;79.83
30598;BME280;17365;48.878;8.334;2023-04-10T01:46:42;100670.09;;;4.62;80.10
30598;BME280;17365;48.878;8.334;2023-04-10T01:49:08;100672.78;;;4.65;80.02
30598;BME280;17365;48.878;8.334;2023-04-10T01:51:34;100664.38;;;4.71;79.76
30598;BME280;17365;48.878;8.334;2023-04-10T01:53:59;100665.94;;;4.91;78.96
30598;BME280;17365;48.878;8.334;2023-04-10T01:56:25;100664.38;;;4.96;78.74
30598;BME280;17365;48.878;8.334;2023-04-10T01:58:51;100676.28;;;4.92;78.67
30598;BME280;17365;48.878;8.334;2023-04-10T02:01:17;100661.84;;;4.97;78.12
30598;BME280;17365;48.878;8.334;2023-04-10T02:03:42;100667.19;;;5.02;77.29
30598;BME280;17365;48.878;8.334;2023-04-10T02:06:10;100654.47;;;4.81;78.73
30598;BME280;17365;48.878;8.334;2023-04-10T02:08:42;100651.53;;;4.96;78.53
30598;BME280;17365;48.878;8.334;2023-04-10T02:11:19;100642.81;;;4.91;78.66
30598;BME280;17365;48.878;8.334;2023-04-10T02:13:45;100638.13;;;4.79;79.51
30598;BME280;17365;48.878;8.334;2023-04-10T02:16:13;100634.94;;;4.86;79.18
30598;BME280;17365;48.878;8.334;2023-04-10T02:18:41;100638.50;;;4.90;79.40
30598;BME280;17365;48.878;8.334;2023-04-10T02:21:07;100637.66;;;4.91;79.63
30598;BME280;17365;48.878;8.334;2023-04-10T02:23:32;100627.53;;;4.95;79.28
30598;BME280;17365;48.878;8.334;2023-04-10T02:25:57;100634.19;;;5.16;77.60
30598;BME280;17365;48.878;8.334;2023-04-10T02:28:29;100635.66;;;5.09;77.42
30598;BME280;17365;48.878;8.334;2023-04-10T02:30:54;100641.97;;;4.92;77.89
30598;BME280;17365;48.878;8.334;2023-04-10T02:33:19;100639.53;;;5.22;76.55
30598;BME280;17365;48.878;8.334;2023-04-10T02:35:44;100629.22;;;4.95;77.90
30598;BME280;17365;48.878;8.334;2023-04-10T02:38:09;100638.59;;;4.93;79.08
30598;BME280;17365;48.878;8.334;2023-04-10T02:40:35;100637.91;;;4.73;79.66
30598;BME280;17365;48.878;8.334;2023-04-10T02:43:00;100628.34;;;4.94;78.73
30598;BME280;17365;48.878;8.334;2023-04-10T02:45:26;100627.50;;;5.21;76.83
30598;BME280;17365;48.878;8.334;2023-04-10T02:47:51;100624.22;;;5.26;76.18
30598;BME280;17365;48.878;8.334;2023-04-10T02:50:16;100624.16;;;4.98;76.84
30598;BME280;17365;48.878;8.334;2023-04-10T02:52:42;100634.34;;;4.68;79.44
30598;BME280;17365;48.878;8.334;2023-04-10T02:55:07;100622.03;;;5.10;77.47
30598;BME280;17365;48.878;8.334;2023-04-10T02:57:33;100621.53;;;5.22;76.44
30598;BME280;17365;48.878;8.334;2023-04-10T02:59:58;100618.97;;;5.22;76.51
30598;BME280;17365;48.878;8.334;2023-04-10T03:02:23;100621.63;;;4.73;79.04
30598;BME280;17365;48.878;8.334;2023-04-10T03:04:48;100619.38;;;4.82;78.81
30598;BME280;17365;48.878;8.334;2023-04-10T03:07:14;100611.38;;;4.74;79.42
30598;BME280;17365;48.878;8.334;2023-04-10T03:09:39;100614.66;;;4.68;79.91
30598;BME280;17365;48.878;8.334;2023-04-10T03:12:04;100596.19;;;4.80;79.61
30598;BME280;17365;48.878;8.334;2023-04-10T03:14:29;100604.91;;;4.85;79.28
30598;BME280;17365;48.878;8.334;2023-04-10T03:16:55;100606.13;;;4.70;79.20
30598;BME280;17365;48.878;8.334;2023-04-10T03:19:20;100604.38;;;4.95;79.05
30598;BME280;17365;48.878;8.334;2023-04-10T03:21:45;100598.81;;;5.09;77.81
30598;BME280;17365;48.878;8.334;2023-04-10T03:24:11;100584.88;;;4.75;78.71
30598;BME280;17365;48.878;8.334;2023-04-10T03:26:36;100593.00;;;4.87;78.92
30598;BME280;17365;48.878;8.334;2023-04-10T03:29:01;100582.72;;;5.14;77.36
30598;BME280;17365;48.878;8.334;2023-04-10T03:31:26;100582.53;;;5.37;76.54
30598;BME280;17365;48.878;8.334;2023-04-10T03:33:52;100581.38;;;4.99;77.98
30598;BME280;17365;48.878;8.334;2023-04-10T03:36:17;100578.47;;;5.16;76.68
30598;BME280;17365;48.878;8.334;2023-04-10T03:38:42;100571.88;;;5.24;76.17
30598;BME280;17365;48.878;8.334;2023-04-10T03:41:07;100561.38;;;5.18;75.91
30598;BME280;17365;48.878;8.334;2023-04-10T03:43:33;100564.00;;;5.20;76.17
30598;BME280;17365;48.878;8.334;2023-04-10T03:45:58;100555.34;;;5.16;76.33
30598;BME280;17365;48.878;8.334;2023-04-10T03:48:23;100551.47;;;5.31;76.03
30598;BME280;17365;48.878;8.334;2023-04-10T03:50:52;100551.84;;;5.43;75.25
30598;BME280;17365;48.878;8.334;2023-04-10T03:53:17;100554.31;;;5.40;75.48
30598;BME280;17365;48.878;8.334;2023-04-10T03:55:42;100549.38;;;5.46;75.23
30598;BME280;17365;48.878;8.334;2023-04-10T03:58:07;100543.66;;;5.28;75.72
30598;BME280;17365;48.878;8.334;2023-04-10T04:00:32;100551.41;;;4.74;78.81
30598;BME280;17365;48.878;8.334;2023-04-10T04:02:58;100557.72;;;4.83;78.63
30598;BME280;17365;48.878;8.334;2023-04-10T04:05:24;100563.91;;;5.17;76.95
30598;BME280;17365;48.878;8.334;2023-04-10T04:07:50;100569.78;;;4.86;78.70
30598;BME280;17365;48.878;8.334;2023-04-10T04:10:15;100571.13;;;5.00;78.00
30598;BME280;17365;48.878;8.334;2023-04-10T04:12:40;100558.06;;;4.94;78.64
30598;BME280;17365;48.878;8.334;2023-04-10T04:15:05;100573.88;;;4.79;79.94
30598;BME280;17365;48.878;8.334;2023-04-10T04:17:31;100568.09;;;4.86;79.50
30598;BME280;17365;48.878;8.334;2023-04-10T04:19:56;100560.63;;;5.21;77.18
30598;BME280;17365;48.878;8.334;2023-04-10T04:22:21;100569.22;;;5.21;76.87
30598;BME280;17365;48.878;8.334;2023-04-10T04:24:46;100564.88;;;4.92;78.96
30598;BME280;17365;48.878;8.334;2023-04-10T04:27:12;100556.78;;;5.08;77.84
30598;BME280;17365;48.878;8.334;2023-04-10T04:29:37;100556.03;;;4.84;79.61
30598;BME280;17365;48.878;8.334;2023-04-10T04:32:02;100552.16;;;4.70;80.78
30598;BME280;17365;48.878;8.334;2023-04-10T04:34:27;100554.81;;;4.73;80.40
30598;BME280;17365;48.878;8.334;2023-04-10T04:36:53;100549.31;;;4.87;79.28
30598;BME280;17365;48.878;8.334;2023-04-10T04:39:18;100547.25;;;5.04;77.99
30598;BME280;17365;48.878;8.334;2023-04-10T04:41:43;100550.72;;;4.78;79.18
30598;BME280;17365;48.878;8.334;2023-04-10T04:44:08;100559.59;;;4.87;78.67
30598;BME280;17365;48.878;8.334;2023-04-10T04:46:33;100562.28;;;4.92;78.28
30598;BME280;17365;48.878;8.334;2023-04-10T04:48:58;100558.47;;;4.79;78.48
30598;BME280;17365;48.878;8.334;2023-04-10T04:51:24;100571.34;;;4.54;80.04
30598;BME280;17365;48.878;8.334;2023-04-10T04:53:52;100574.19;;;4.37;80.74
30598;BME280;17365;48.878;8.334;2023-04-10T04:56:17;100573.72;;;4.24;81.56
30598;BME280;17365;48.878;8.334;2023-04-10T04:58:43;100575.47;;;4.50;80.75
30598;BME280;17365;48.878;8.334;2023-04-10T05:01:08;100569.66;;;4.54;80.37
30598;BME280;17365;48.878;8.334;2023-04-10T05:03:33;100569.03;;;4.63;80.85
30598;BME280;17365;48.878;8.334;2023-04-10T05:05:58;100569.69;;;4.83;79.46
30598;BME280;17365;48.878;8.334;2023-04-10T05:08:23;100573.22;;;4.86;78.40
30598;BME280;17365;48.878;8.334;2023-04-10T05:10:49;100577.75;;;4.93;78.66
30598;BME280;17365;48.878;8.334;2023-04-10T05:13:14;100581.41;;;4.48;80.44
30598;BME280;17365;48.878;8.334;2023-04-10T05:15:41;100583.03;;;4.71;79.32
30598;BME280;17365;48.878;8.334;2023-04-10T05:18:06;100583.41;;;4.56;79.64
30598;BME280;17365;48.878;8.334;2023-04-10T05:20:35;100584.00;;;4.75;79.74
30598;BME280;17365;48.878;8.334;2023-04-10T05:23:00;100592.19;;;4.88;78.95
30598;BME280;17365;48.878;8.334;2023-04-10T05:25:26;100585.50;;;4.95;78.71
30598;BME280;17365;48.878;8.334;2023-04-10T05:27:51;100586.44;;;4.97;79.18
30598;BME280;17365;48.878;8.334;2023-04-10T05:30:16;100573.53;;;4.95;78.60
30598;BME280;17365;48.878;8.334;2023-04-10T05:32:41;100571.69;;;5.18;77.41
30598;BME280;17365;48.878;8.334;2023-04-10T05:35:07;100562.19;;;5.16;77.40
30598;BME280;17365;48.878;8.334;2023-04-10T05:37:32;100568.69;;;5.05;77.53
30598;BME280;17365;48.878;8.334;2023-04-10T05:39:58;100567.50;;;5.50;76.60
30598;BME280;17365;48.878;8.334;2023-04-10T05:42:23;100568.34;;;5.79;75.39
30598;BME280;17365;48.878;8.334;2023-04-10T05:44:48;100561.69;;;5.88;75.00
30598;BME280;17365;48.878;8.334;2023-04-10T05:47:14;100557.97;;;6.06;74.48
30598;BME280;17365;48.878;8.334;2023-04-10T05:49:39;100565.41;;;5.96;74.65
30598;BME280;17365;48.878;8.334;2023-04-10T05:52:04;100571.66;;;6.04;74.35
30598;BME280;17365;48.878;8.334;2023-04-10T05:54:29;100572.63;;;6.09;72.71
30598;BME280;17365;48.878;8.334;2023-04-10T05:56:55;100571.47;;;5.98;73.02
30598;BME280;17365;48.878;8.334;2023-04-10T05:59:20;100571.66;;;6.04;73.40
30598;BME280;17365;48.878;8.334;2023-04-10T06:01:45;100585.44;;;6.37;72.74
30598;BME280;17365;48.878;8.334;2023-04-10T06:04:11;100580.41;;;6.43;72.11
30598;BME280;17365;48.878;8.334;2023-04-10T06:06:37;100577.38;;;6.93;71.33
30598;BME280;17365;48.878;8.334;2023-04-10T06:09:02;100569.88;;;7.04;70.25
30598;BME280;17365;48.878;8.334;2023-04-10T06:11:28;100572.97;;;7.25;70.09
30598;BME280;17365;48.878;8.334;2023-04-10T06:13:53;100570.44;;;7.28;69.93
30598;BME280;17365;48.878;8.334;2023-04-10T06:16:18;100571.34;;;7.30;69.79
30598;BME280;17365;48.878;8.334;2023-04-10T06:18:43;100574.41;;;7.51;69.68
30598;BME280;17365;48.878;8.334;2023-04-10T06:21:08;100574.34;;;7.48;68.73
30598;BME280;17365;48.878;8.334;2023-04-10T06:23:34;100578.19;;;7.69;68.28
30598;BME280;17365;48.878;8.334;2023-04-10T06:26:00;100578.72;;;7.93;68.08
30598;BME280;17365;48.878;8.334;2023-04-10T06:28:25;100570.88;;;7.90;68.30
30598;BME280;17365;48.878;8.334;2023-04-10T06:30:50;100576.16;;;7.95;68.08
30598;BME280;17365;48.878;8.334;2023-04-10T06:33:16;100571.63;;;8.28;67.28
30598;BME280;17365;48.878;8.334;2023-04-10T06:35:41;100575.09;;;8.29;66.01
30598;BME280;17365;48.878;8.334;2023-04-10T06:38:06;100570.59;;;8.65;65.82
30598;BME280;17365;48.878;8.334;2023-04-10T06:40:32;100563.97;;;8.83;65.78
30598;BME280;17365;48.878;8.334;2023-04-10T06:42:58;100565.63;;;8.78;65.98
30598;BME280;17365;48.878;8.334;2023-04-10T06:45:23;100568.41;;;8.91;65.70
30598;BME280;17365;48.878;8.334;2023-04-10T06:47:48;100562.00;;;9.24;64.76
30598;BME280;17365;48.878;8.334;2023-04-10T06:50:14;100557.03;;;9.39;64.46
30598;BME280;17365;48.878;8.334;2023-04-10T06:52:39;100556.31;;;9.49;64.11
30598;BME280;17365;48.878;8.334;2023-04-10T06:55:04;100548.75;;;9.65;64.22
30598;BME280;17365;48.878;8.334;2023-04-10T06:57:30;100548.84;;;9.74;62.36
30598;BME280;17365;48.878;8.334;2023-04-10T06:59:55;100547.22;;;9.82;61.79
30598;BME280;17365;48.878;8.334;2023-04-10T07:02:20;100541.44;;;10.04;62.11
30598;BME280;17365;48.878;8.334;2023-04-10T07:04:45;100544.31;;;10.27;61.78
30598;BME280;17365;48.878;8.334;2023-04-10T07:07:11;100539.91;;;10.20;60.09
30598;BME280;17365;48.878;8.334;2023-04-10T07:09:37;100546.25;;;10.49;60.33
30598;BME280;17365;48.878;8.334;2023-04-10T07:12:03;100543.81;;;10.68;60.65
30598;BME280;17365;48.878;8.334;2023-04-10T07:14:28;100550.59;;;10.52;58.30
30598;BME280;17365;48.878;8.334;2023-04-10T07:16:53;100543.72;;;10.57;60.44
30598;BME280;17365;48.878;8.334;2023-04-10T07:19:21;100548.09;;;10.64;56.83
30598;BME280;17365;48.878;8.334;2023-04-10T07:21:47;100552.69;;;10.97;58.92
30598;BME280;17365;48.878;8.334;2023-04-10T07:24:14;100545.66;;;10.84;56.20
30598;BME280;17365;48.878;8.334;2023-04-10T07:26:39;100537.22;;;11.13;58.10
30598;BME280;17365;48.878;8.334;2023-04-10T07:29:05;100532.84;;;11.08;57.47
30598;BME280;17365;48.878;8.334;2023-04-10T07:31:31;100535.56;;;11.22;57.42
30598;BME280;17365;48.878;8.334;2023-04-10T07:33:56;100543.44;;;11.42;55.67
30598;BME280;17365;48.878;8.334;2023-04-10T07:36:22;100534.75;;;11.34;52.18
30598;BME280;17365;48.878;8.334;2023-04-10T07:38:49;100538.22;;;11.37;51.21
30598;BME280;17365;48.878;8.334;2023-04-10T07:41:14;100532.22;;;11.49;52.23
30598;BME280;17365;48.878;8.334;2023-04-10T07:43:39;100537.44;;;11.49;50.06
30598;BME280;17365;48.878;8.334;2023-04-10T07:46:05;100537.47;;;11.57;48.67
30598;BME280;17365;48.878;8.334;2023-04-10T07:48:30;100538.38;;;11.70;48.11
30598;BME280;17365;48.878;8.334;2023-04-10T07:50:56;100538.34;;;11.62;43.80
30598;BME280;17365;48.878;8.334;2023-04-10T07:53:22;100545.31;;;11.71;43.29
30598;BME280;17365;48.878;8.334;2023-04-10T07:55:48;100535.97;;;12.14;44.82
30598;BME280;17365;48.878;8.334;2023-04-10T07:58:13;100539.41;;;12.07;42.30
30598;BME280;17365;48.878;8.334;2023-04-10T08:00:39;100539.41;;;12.07;43.26
30598;BME280;17365;48.878;8.334;2023-04-10T08:03:04;100531.66;;;12.39;43.81
30598;BME280;17365;48.878;8.334;2023-04-10T08:05:30;100529.09;;;12.69;44.38
30598;BME280;17365;48.878;8.334;2023-04-10T08:07:56;100542.06;;;12.45;41.22
30598;BME280;17365;48.878;8.334;2023-04-10T08:10:21;100538.63;;;12.81;42.75
30598;BME280;17365;48.878;8.334;2023-04-10T08:12:55;100541.22;;;12.67;42.00
30598;BME280;17365;48.878;8.334;2023-04-10T08:15:21;100532.56;;;12.82;41.20
30598;BME280;17365;48.878;8.334;2023-04-10T08:17:46;100536.00;;;13.05;42.33
30598;BME280;17365;48.878;8.334;2023-04-10T08:20:11;100524.69;;;13.00;42.68
30598;BME280;17365;48.878;8.334;2023-04-10T08:22:40;100523.00;;;12.95;40.13
30598;BME280;17365;48.878;8.334;2023-04-10T08:25:06;100520.34;;;13.15;39.24
30598;BME280;17365;48.878;8.334;2023-04-10T08:27:31;100525.50;;;13.51;41.38
30598;BME280;17365;48.878;8.334;2023-04-10T08:29:56;100515.91;;;13.55;41.73
30598;BME280;17365;48.878;8.334;2023-04-10T08:32:21;100522.06;;;13.40;39.14
30598;BME280;17365;48.878;8.334;2023-04-10T08:34:48;100519.47;;;13.37;38.75
30598;BME280;17365;48.878;8.334;2023-04-10T08:37:13;100515.94;;;13.44;38.59
30598;BME280;17365;48.878;8.334;2023-04-10T08:39:40;100516.78;;;13.60;38.79
30598;BME280;17365;48.878;8.334;2023-04-10T08:42:05;100517.66;;;13.47;37.54
30598;BME280;17365;48.878;8.334;2023-04-10T08:44:31;100519.38;;;13.54;37.00
30598;BME280;17365;48.878;8.334;2023-04-10T08:46:57;100518.47;;;13.72;38.41
30598;BME280;17365;48.878;8.334;2023-04-10T08:49:29;100520.22;;;13.65;37.33
30598;BME280;17365;48.878;8.334;2023-04-10T08:51:56;100514.00;;;13.93;38.41
30598;BME280;17365;48.878;8.334;2023-04-10T08:54:26;100514.00;;;13.90;38.64
30598;BME280;17365;48.878;8.334;2023-04-10T08:56:52;100507.97;;;13.82;38.57
30598;BME280;17365;48.878;8.334;2023-04-10T08:59:18;100501.06;;;13.75;37.69
30598;BME280;17365;48.878;8.334;2023-04-10T09:01:44;100502.47;;;14.26;38.83
30598;BME280;17365;48.878;8.334;2023-04-10T09:04:10;100497.25;;;14.28;37.20
30598;BME280;17365;48.878;8.334;2023-04-10T09:06:36;100500.84;;;14.12;36.36
30598;BME280;17365;48.878;8.334;2023-04-10T09:09:02;100496.41;;;14.27;37.19
30598;BME280;17365;48.878;8.334;2023-04-10T09:14:20;100475.22;;;14.66;36.38
30598;BME280;17365;48.878;8.334;2023-04-10T09:16:46;100473.28;;;14.88;35.63
30598;BME280;17365;48.878;8.334;2023-04-10T09:19:11;100474.09;;;14.91;35.56
30598;BME280;17365;48.878;8.334;2023-04-10T09:21:37;100473.50;;;14.63;36.53
30598;BME280;17365;48.878;8.334;2023-04-10T09:24:02;100466.50;;;14.67;36.10
30598;BME280;17365;48.878;8.334;2023-04-10T09:26:31;100457.41;;;15.04;37.49
30598;BME280;17365;48.878;8.334;2023-04-10T09:29:04;100457.13;;;15.32;36.42
30598;BME280;17365;48.878;8.334;2023-04-10T09:31:33;100451.59;;;14.78;35.80
30598;BME280;17365;48.878;8.334;2023-04-10T09:36:33;100445.69;;;15.40;36.13
30598;BME280;17365;48.878;8.334;2023-04-10T09:38:58;100443.66;;;15.65;36.35
30598;BME280;17365;48.878;8.334;2023-04-10T09:41:23;100436.03;;;15.44;35.71
30598;BME280;17365;48.878;8.334;2023-04-10T09:43:49;100439.66;;;15.34;36.31
30598;BME280;17365;48.878;8.334;2023-04-10T09:46:28;100444.94;;;15.28;36.49
30598;BME280;17365;48.878;8.334;2023-04-10T09:48:54;100426.78;;;15.85;36.73
30598;BME280;17365;48.878;8.334;2023-04-10T09:51:27;100426.78;;;15.85;35.85
30598;BME280;17365;48.878;8.334;2023-04-10T09:53:53;100429.03;;;15.46;36.52
30598;BME280;17365;48.878;8.334;2023-04-10T09:56:19;100424.03;;;15.31;36.29
30598;BME280;17365;48.878;8.334;2023-04-10T09:58:45;100413.91;;;15.71;36.29
30598;BME280;17365;48.878;8.334;2023-04-10T10:01:11;100410.47;;;15.67;36.77
30598;BME280;17365;48.878;8.334;2023-04-10T10:03:37;100408.50;;;15.83;37.10
30598;BME280;17365;48.878;8.334;2023-04-10T10:06:02;100403.44;;;16.26;36.22
30598;BME280;17365;48.878;8.334;2023-04-10T10:08:28;100402.22;;;16.47;35.62
30598;BME280;17365;48.878;8.334;2023-04-10T10:10:56;100401.47;;;15.85;36.03
30598;BME280;17365;48.878;8.334;2023-04-10T10:13:23;100396.56;;;15.65;37.83
30598;BME280;17365;48.878;8.334;2023-04-10T10:18:30;100389.66;;;16.15;36.97
30598;BME280;17365;48.878;8.334;2023-04-10T10:20:56;100393.25;;;16.11;35.31
30598;BME280;17365;48.878;8.334;2023-04-10T10:23:22;100390.38;;;16.25;36.62
30598;BME280;17365;48.878;8.334;2023-04-10T10:25:48;100383.69;;;16.58;35.85
30598;BME280;17365;48.878;8.334;2023-04-10T10:28:14;100384.91;;;16.39;36.17
30598;BME280;17365;48.878;8.334;2023-04-10T10:30:40;100387.38;;;16.48;35.59
30598;BME280;17365;48.878;8.334;2023-04-10T10:33:06;100385.72;;;16.44;35.45
30598;BME280;17365;48.878;8.334;2023-04-10T10:35:35;100382.00;;;16.55;35.77
30598;BME280;17365;48.878;8.334;2023-04-10T10:38:01;100376.94;;;16.46;34.49
30598;BME280;17365;48.878;8.334;2023-04-10T10:45:45;100367.44;;;16.88;34.46
30598;BME280;17365;48.878;8.334;2023-04-10T10:48:14;100368.06;;;17.00;34.21
30598;BME280;17365;48.878;8.334;2023-04-10T10:50:49;100362.84;;;17.00;34.23
30598;BME280;17365;48.878;8.334;2023-04-10T10:53:34;100358.88;;;17.22;34.63
30598;BME280;17365;48.878;8.334;2023-04-10T10:58:53;100359.50;;;17.33;33.95
30598;BME280;17365;48.878;8.334;2023-04-10T11:01:21;100352.09;;;17.51;34.02
30598;BME280;17365;48.878;8.334;2023-04-10T11:03:47;100341.97;;;17.35;33.27
30598;BME280;17365;48.878;8.334;2023-04-10T11:06:17;100347.53;;;16.78;34.56
30598;BME280;17365;48.878;8.334;2023-04-10T11:11:30;100345.84;;;17.58;34.71
30598;BME280;17365;48.878;8.334;2023-04-10T11:16:42;100347.25;;;17.32;35.99
30598;BME280;17365;48.878;8.334;2023-04-10T11:19:08;100342.31;;;17.96;34.30
30598;BME280;17365;48.878;8.334;2023-04-10T11:21:40;100336.38;;;18.22;34.33
30598;BME280;17365;48.878;8.334;2023-04-10T11:24:22;100325.91;;;18.54;33.54
30598;BME280;17365;48.878;8.334;2023-04-10T11:26:47;100321.84;;;18.75;32.96
30598;BME280;17365;48.878;8.334;2023-04-10T11:31:42;100308.81;;;18.06;33.10
30598;BME280;17365;48.878;8.334;2023-04-10T11:34:08;100306.22;;;17.68;33.56
30598;BME280;17365;48.878;8.334;2023-04-10T11:36:42;100304.09;;;18.51;33.83
30598;BME280;17365;48.878;8.334;2023-04-10T11:39:09;100312.31;;;18.39;32.64
30598;BME280;17365;48.878;8.334;2023-04-10T11:41:37;100306.53;;;18.26;31.92
30598;BME280;17365;48.878;8.334;2023-04-10T11:44:04;100300.63;;;18.50;32.76
30598;BME280;17365;48.878;8.334;2023-04-10T11:46:30;100300.72;;;18.15;31.47
30598;BME280;17365;48.878;8.334;2023-04-10T11:48:59;100298.56;;;18.29;31.52
30598;BME280;17365;48.878;8.334;2023-04-10T11:51:25;100296.38;;;18.45;31.29
30598;BME280;17365;48.878;8.334;2023-04-10T11:56:30;100295.94;;;18.29;32.40
30598;BME280;17365;48.878;8.334;2023-04-10T11:58:55;100292.16;;;18.39;31.60
30598;BME280;17365;48.878;8.334;2023-04-10T12:01:21;100285.19;;;18.38;30.62
30598;BME280;17365;48.878;8.334;2023-04-10T12:03:46;100282.78;;;18.61;30.65
30598;BME280;17365;48.878;8.334;2023-04-10T12:06:12;100273.59;;;18.47;29.61
30598;BME280;17365;48.878;8.334;2023-04-10T12:08:39;100274.59;;;18.41;30.54
30598;BME280;17365;48.878;8.334;2023-04-10T12:11:04;100263.16;;;19.32;29.65
30598;BME280;17365;48.878;8.334;2023-04-10T12:13:30;100263.63;;;19.45;28.64
30598;BME280;17365;48.878;8.334;2023-04-10T12:15:59;100259.09;;;19.22;28.78
30598;BME280;17365;48.878;8.334;2023-04-10T12:18:26;100255.59;;;18.62;29.73
30598;BME280;17365;48.878;8.334;2023-04-10T12:20:51;100249.53;;;18.92;29.42
30598;BME280;17365;48.878;8.334;2023-04-10T12:23:20;100245.66;;;18.43;29.17
30598;BME280;17365;48.878;8.334;2023-04-10T12:25:45;100254.16;;;18.20;29.12
30598;BME280;17365;48.878;8.334;2023-04-10T12:28:15;100248.47;;;18.68;28.86
30598;BME280;17365;48.878;8.334;2023-04-10T12:30:48;100245.69;;;18.74;28.46
30598;BME280;17365;48.878;8.334;2023-04-10T12:33:13;100242.41;;;18.95;29.24
30598;BME280;17365;48.878;8.334;2023-04-10T12:35:44;100240.69;;;18.32;29.23
30598;BME280;17365;48.878;8.334;2023-04-10T12:38:09;100241.44;;;18.37;29.76
30598;BME280;17365;48.878;8.334;2023-04-10T12:40:35;100245.53;;;18.47;30.40
30598;BME280;17365;48.878;8.334;2023-04-10T12:43:02;100239.88;;;18.92;30.32
30598;BME280;17365;48.878;8.334;2023-04-10T12:45:43;100233.44;;;18.73;29.78
30598;BME280;17365;48.878;8.334;2023-04-10T12:48:09;100229.97;;;19.00;28.98
30598;BME280;17365;48.878;8.334;2023-04-10T12:50:44;100236.59;;;18.84;29.35
30598;BME280;17365;48.878;8.334;2023-04-10T12:53:10;100229.25;;;18.66;30.18
30598;BME280;17365;48.878;8.334;2023-04-10T12:55:37;100220.31;;;19.29;29.79
30598;BME280;17365;48.878;8.334;2023-04-10T12:58:24;100224.19;;;18.89;29.50
30598;BME280;17365;48.878;8.334;2023-04-10T13:00:52;100221.16;;;18.73;29.05
30598;BME280;17365;48.878;8.334;2023-04-10T13:03:17;100222.34;;;18.93;29.05
30598;BME280;17365;48.878;8.334;2023-04-10T13:05:43;100224.88;;;18.66;29.18
30598;BME280;17365;48.878;8.334;2023-04-10T13:08:08;100219.19;;;18.80;29.12
30598;BME280;17365;48.878;8.334;2023-04-10T13:10:33;100207.69;;;19.12;28.77
30598;BME280;17365;48.878;8.334;2023-04-10T13:13:02;100214.31;;;18.68;29.94
30598;BME280;17365;48.878;8.334;2023-04-10T13:15:27;100210.84;;;19.23;29.83
30598;BME280;17365;48.878;8.334;2023-04-10T13:17:53;100215.47;;;18.87;29.75
30598;BME280;17365;48.878;8.334;2023-04-10T13:20:18;100214.88;;;18.48;28.95
30598;BME280;17365;48.878;8.334;2023-04-10T13:22:43;100203.00;;;19.22;28.43
30598;BME280;17365;48.878;8.334;2023-04-10T13:25:09;100191.75;;;19.71;28.60
30598;BME280;17365;48.878;8.334;2023-04-10T13:27:34;100189.88;;;19.74;29.08
30598;BME280;17365;48.878;8.334;2023-04-10T13:30:00;100187.63;;;19.36;29.05
30598;BME280;17365;48.878;8.334;2023-04-10T13:32:25;100187.25;;;19.48;29.18